Time;durP1;ratioP1;P1;durP2;ratioP2;P2;SDS_P1;SDS_P2;PMS_P1;PMS_P2;Temp;Humidity;BMP_temperature;BMP_pressure;BME280_temperature;BME280_humidity;BME280_pressure;Samples;Min_cycle;Max_cycle;Signal;HPM_P1;HPM_P2
2022/01/05 00:02:13;;;;;;;0.00;0.00;;;3.20;99.90;;;;;;6214885;23;20027;-70
2022/01/05 00:04:39;;;;;;;0.00;0.00;;;3.20;99.90;;;;;;6215716;23;20000;-69
2022/01/05 00:07:06;;;;;;;;;;;3.10;99.90;;;;;;6215204;23;20001;-68
2022/01/05 00:09:32;;;;;;;0.00;0.00;;;3.20;99.90;;;;;;6215325;23;20331;-70
2022/01/05 00:11:58;;;;;;;0.00;0.00;;;3.20;99.90;;;;;;6214133;23;20013;-69
2022/01/05 00:14:23;;;;;;;;;;;3.10;99.90;;;;;;6213015;23;19997;-69
2022/01/05 00:16:49;;;;;;;0.00;0.00;;;3.10;99.90;;;;;;6213962;23;20324;-69
2022/01/05 00:19:15;;;;;;;0.00;0.00;;;3.20;99.90;;;;;;6211830;23;20012;-69
2022/01/05 00:21:40;;;;;;;0.00;0.00;;;3.10;99.90;;;;;;6213710;23;20083;-70
2022/01/05 00:24:08;;;;;;;0.00;0.00;;;3.00;99.90;;;;;;6212124;23;20423;-68
2022/01/05 00:26:34;;;;;;;0.00;0.00;;;3.10;99.90;;;;;;6213259;23;20005;-69
2022/01/05 00:29:00;;;;;;;0.00;0.00;;;3.10;99.90;;;;;;6213688;23;19997;-69
2022/01/05 00:31:27;;;;;;;0.00;0.00;;;3.20;99.90;;;;;;6214899;23;20000;-68
2022/01/05 00:33:54;;;;;;;0.00;0.00;;;3.00;99.90;;;;;;6207821;23;20016;-69
2022/01/05 00:36:19;;;;;;;0.00;0.00;;;3.00;99.90;;;;;;6209485;23;20013;-69
2022/01/05 00:38:46;;;;;;;0.10;0.10;;;2.90;99.90;;;;;;6214418;23;20031;-69
2022/01/05 00:41:12;;;;;;;0.00;0.00;;;2.90;99.90;;;;;;6215160;23;20079;-70
2022/01/05 00:43:38;;;;;;;0.00;0.00;;;2.90;99.90;;;;;;6214868;23;20004;-67
2022/01/05 00:46:05;;;;;;;0.00;0.00;;;2.90;99.90;;;;;;6212265;23;20004;-69
2022/01/05 00:48:32;;;;;;;0.00;0.00;;;2.90;99.90;;;;;;6215061;23;20008;-68
2022/01/05 00:51:02;;;;;;;0.00;0.00;;;2.90;99.90;;;;;;6214119;23;20011;-68
2022/01/05 00:53:28;;;;;;;0.00;0.00;;;2.80;99.90;;;;;;6213775;23;20024;-68
2022/01/05 00:55:54;;;;;;;0.00;0.00;;;2.90;99.90;;;;;;6213195;23;20039;-68
2022/01/05 00:58:19;;;;;;;0.00;0.00;;;2.80;99.90;;;;;;6211012;23;19996;-68
2022/01/05 01:00:45;;;;;;;0.00;0.00;;;2.80;99.90;;;;;;6211819;23;20007;-69
2022/01/05 01:03:11;;;;;;;0.00;0.00;;;2.90;99.90;;;;;;6213610;23;20008;-68
2022/01/05 01:05:37;;;;;;;0.00;0.00;;;2.90;99.90;;;;;;6213072;23;20363;-69
2022/01/05 01:08:03;;;;;;;0.00;0.00;;;2.80;99.90;;;;;;6212862;23;20001;-69
2022/01/05 01:10:29;;;;;;;0.00;0.00;;;2.90;99.90;;;;;;6213992;23;20000;-69
2022/01/05 01:12:54;;;;;;;;;;;2.90;99.90;;;;;;6215909;23;20078;-68
2022/01/05 01:15:20;;;;;;;0.00;0.00;;;2.90;99.90;;;;;;6215753;23;19958;-69
2022/01/05 01:17:46;;;;;;;0.00;0.00;;;2.90;99.90;;;;;;6214004;23;20492;-69
2022/01/05 01:20:11;;;;;;;0.00;0.00;;;2.90;99.90;;;;;;6214252;23;20005;-69
2022/01/05 01:22:37;;;;;;;0.00;0.00;;;3.00;99.90;;;;;;6216143;23;19997;-68
2022/01/05 01:25:03;;;;;;;;;;;3.10;99.90;;;;;;6215116;23;20007;-68
2022/01/05 01:27:29;;;;;;;0.00;0.00;;;3.10;99.90;;;;;;6211676;23;19900;-70
2022/01/05 01:29:55;;;;;;;0.00;0.00;;;3.00;99.90;;;;;;6214521;23;19996;-69
2022/01/05 01:32:21;;;;;;;0.00;0.00;;;3.00;99.90;;;;;;6210856;23;20051;-68
2022/01/05 01:34:46;;;;;;;0.00;0.00;;;3.00;99.90;;;;;;6212749;23;20004;-69
2022/01/05 01:37:14;;;;;;;0.00;0.00;;;3.00;99.90;;;;;;6214919;23;20416;-68
2022/01/05 01:39:39;;;;;;;0.00;0.00;;;3.00;99.90;;;;;;6211946;23;20072;-69
2022/01/05 01:42:05;;;;;;;0.00;0.00;;;3.20;99.90;;;;;;6213841;23;20032;-68
2022/01/05 01:44:31;;;;;;;0.00;0.00;;;3.10;99.90;;;;;;6213964;23;20472;-69
2022/01/05 01:46:57;;;;;;;0.00;0.00;;;3.10;99.90;;;;;;6212562;23;20031;-68
2022/01/05 01:49:22;;;;;;;0.00;0.00;;;3.10;99.90;;;;;;6215365;23;20031;-70
2022/01/05 01:51:48;;;;;;;;;;;3.20;99.90;;;;;;6213465;23;20032;-67
2022/01/05 01:54:14;;;;;;;0.00;0.00;;;3.30;99.90;;;;;;6213574;23;20276;-69
2022/01/05 01:56:41;;;;;;;0.00;0.00;;;3.30;99.90;;;;;;6212523;23;20070;-68
2022/01/05 01:59:07;;;;;;;0.00;0.00;;;3.40;99.90;;;;;;6215386;23;20009;-68
2022/01/05 02:01:33;;;;;;;0.00;0.00;;;3.40;99.90;;;;;;6212182;23;20004;-69
2022/01/05 02:03:59;;;;;;;0.00;0.00;;;3.40;99.90;;;;;;6215598;23;20384;-68
2022/01/05 02:06:24;;;;;;;0.00;0.00;;;3.30;99.90;;;;;;6214948;23;20001;-68
2022/01/05 02:08:50;;;;;;;0.00;0.00;;;3.40;99.90;;;;;;6215760;23;20449;-68
2022/01/05 02:11:16;;;;;;;0.00;0.00;;;3.40;99.90;;;;;;6212891;23;20236;-69
2022/01/05 02:13:42;;;;;;;0.00;0.00;;;3.30;99.90;;;;;;6212613;23;20001;-69
2022/01/05 02:16:08;;;;;;;0.00;0.00;;;3.30;99.90;;;;;;6213066;23;19996;-70
2022/01/05 02:21:07;;;;;;;0.05;0.05;;;3.40;99.90;;;;;;6213179;23;20288;-69
2022/01/05 02:23:35;;;;;;;0.00;0.00;;;3.40;99.90;;;;;;6215052;23;19997;-69
2022/01/05 02:26:02;;;;;;;0.00;0.00;;;3.40;99.90;;;;;;6215148;23;20001;-68
2022/01/05 02:28:28;;;;;;;0.00;0.00;;;3.50;99.90;;;;;;6215118;23;20000;-69
2022/01/05 02:30:54;;;;;;;;;;;3.60;99.90;;;;;;6215135;23;20010;-69
2022/01/05 02:33:21;;;;;;;0.00;0.00;;;3.70;99.90;;;;;;6214487;23;20305;-70
2022/01/05 02:35:47;;;;;;;0.00;0.00;;;3.80;99.90;;;;;;6216048;23;20001;-68
2022/01/05 02:38:21;;;;;;;0.00;0.00;;;3.70;99.90;;;;;;6213578;23;20382;-71
2022/01/05 02:40:50;;;;;;;0.00;0.00;;;3.80;99.90;;;;;;6210033;23;20013;-68
2022/01/05 02:43:16;;;;;;;0.00;0.00;;;3.80;99.90;;;;;;6215801;23;20008;-70
2022/01/05 02:45:41;;;;;;;0.00;0.00;;;3.80;99.90;;;;;;6215397;23;20008;-69
2022/01/05 02:48:07;;;;;;;0.00;0.00;;;3.80;99.90;;;;;;6216060;23;19996;-69
2022/01/05 02:50:34;;;;;;;0.00;0.00;;;3.80;99.90;;;;;;6215460;23;20072;-69
2022/01/05 02:53:00;;;;;;;0.00;0.00;;;3.80;99.90;;;;;;6215997;23;20003;-68
2022/01/05 02:55:25;;;;;;;0.00;0.00;;;3.70;99.90;;;;;;6218031;23;20000;-68
2022/01/05 02:57:51;;;;;;;0.00;0.00;;;3.70;99.90;;;;;;6217561;23;19993;-69
2022/01/05 03:00:17;;;;;;;0.00;0.00;;;3.70;99.90;;;;;;6215221;23;19997;-69
2022/01/05 03:02:44;;;;;;;0.00;0.00;;;3.70;99.90;;;;;;6216423;23;20001;-69
2022/01/05 03:05:10;;;;;;;0.00;0.00;;;3.70;99.90;;;;;;6217772;23;20005;-70
2022/01/05 03:07:39;;;;;;;0.00;0.00;;;3.60;99.90;;;;;;6215166;23;20072;-69
2022/01/05 03:10:10;;;;;;;0.00;0.00;;;3.60;99.90;;;;;;6216507;23;20019;-69
2022/01/05 03:12:45;;;;;;;0.00;0.00;;;3.70;99.90;;;;;;6214506;23;20031;-70
2022/01/05 03:15:12;;;;;;;0.00;0.00;;;3.80;99.90;;;;;;6216592;23;20000;-69
2022/01/05 03:17:38;;;;;;;0.00;0.00;;;3.90;99.90;;;;;;6217620;23;20425;-69
2022/01/05 03:20:05;;;;;;;0.00;0.00;;;3.90;99.90;;;;;;6215055;23;20077;-70
2022/01/05 03:22:30;;;;;;;0.00;0.00;;;3.90;99.90;;;;;;6219524;23;20523;-69
2022/01/05 03:24:56;;;;;;;0.00;0.00;;;4.00;99.90;;;;;;6217323;23;20020;-70
2022/01/05 03:27:22;;;;;;;0.00;0.00;;;4.00;99.90;;;;;;6215248;23;20008;-68
2022/01/05 03:29:47;;;;;;;0.00;0.00;;;4.10;99.90;;;;;;6217157;23;20000;-70
2022/01/05 03:32:13;;;;;;;0.00;0.00;;;4.20;99.90;;;;;;6216714;23;20055;-69
2022/01/05 03:34:40;;;;;;;0.00;0.00;;;4.20;99.90;;;;;;6213479;23;20017;-70
2022/01/05 03:37:06;;;;;;;0.00;0.00;;;4.30;99.90;;;;;;6215469;23;20443;-69
2022/01/05 03:39:32;;;;;;;0.00;0.00;;;4.40;99.90;;;;;;6213262;23;20012;-70
2022/01/05 03:41:57;;;;;;;0.00;0.00;;;4.40;99.90;;;;;;6215203;23;20001;-69
2022/01/05 03:44:23;;;;;;;0.00;0.00;;;4.40;99.90;;;;;;6215097;23;20071;-69
2022/01/05 03:46:50;;;;;;;0.00;0.00;;;4.30;99.90;;;;;;6213588;23;19996;-68
2022/01/05 03:49:16;;;;;;;0.00;0.00;;;4.30;99.90;;;;;;6214065;23;20050;-69
2022/01/05 03:51:42;;;;;;;0.00;0.00;;;4.30;99.90;;;;;;6214475;23;20329;-70
2022/01/05 03:54:07;;;;;;;0.00;0.00;;;4.30;99.90;;;;;;6212208;23;20031;-70
2022/01/05 03:56:33;;;;;;;0.00;0.00;;;4.20;99.90;;;;;;6213718;23;20099;-68
2022/01/05 03:58:59;;;;;;;0.00;0.00;;;4.20;99.90;;;;;;6212454;23;20009;-68
2022/01/05 04:01:24;;;;;;;0.00;0.00;;;4.20;99.90;;;;;;6213510;23;20005;-69
2022/01/05 04:03:50;;;;;;;0.00;0.00;;;4.20;99.90;;;;;;6212624;23;20004;-69
2022/01/05 04:06:16;;;;;;;0.00;0.00;;;4.20;99.90;;;;;;6217854;23;20000;-69
2022/01/05 04:08:42;;;;;;;0.00;0.00;;;4.10;99.90;;;;;;6218840;23;20008;-70
2022/01/05 04:11:08;;;;;;;0.00;0.00;;;4.20;99.90;;;;;;6218725;23;20001;-68
2022/01/05 04:13:33;;;;;;;0.00;0.00;;;4.20;99.90;;;;;;6218042;23;20000;-69
2022/01/05 04:15:59;;;;;;;0.00;0.00;;;4.30;99.90;;;;;;6216089;23;20012;-69
2022/01/05 04:18:25;;;;;;;0.00;0.00;;;4.30;99.90;;;;;;6217325;23;20001;-69
2022/01/05 04:20:51;;;;;;;0.00;0.00;;;4.20;99.90;;;;;;6215469;23;20012;-69
2022/01/05 04:23:16;;;;;;;0.00;0.00;;;4.10;99.90;;;;;;6214218;23;20016;-69
2022/01/05 04:25:42;;;;;;;0.00;0.00;;;4.10;99.90;;;;;;6213953;23;20004;-69
2022/01/05 04:28:08;;;;;;;0.00;0.00;;;4.00;99.90;;;;;;6215344;23;20409;-69
2022/01/05 04:30:33;;;;;;;;;;;4.00;99.90;;;;;;6215380;23;20008;-67
2022/01/05 04:32:59;;;;;;;0.00;0.00;;;3.90;99.90;;;;;;6213003;23;19912;-68
2022/01/05 04:35:25;;;;;;;0.00;0.00;;;3.90;99.90;;;;;;6215647;23;20410;-69
2022/01/05 04:37:51;;;;;;;0.00;0.00;;;3.90;99.90;;;;;;6215437;23;20001;-68
2022/01/05 04:40:16;;;;;;;0.00;0.00;;;3.90;99.90;;;;;;6215003;23;19997;-70
2022/01/05 04:42:42;;;;;;;0.00;0.00;;;3.70;99.90;;;;;;6216111;23;20004;-68
2022/01/05 04:45:08;;;;;;;0.00;0.00;;;3.70;99.90;;;;;;6214721;23;20007;-68
2022/01/05 04:47:35;;;;;;;0.00;0.00;;;3.70;99.90;;;;;;6213785;23;20003;-69
2022/01/05 04:50:00;;;;;;;0.00;0.00;;;3.60;99.90;;;;;;6214988;23;20008;-68
2022/01/05 04:52:26;;;;;;;0.00;0.00;;;3.50;99.90;;;;;;6214671;23;20000;-68
2022/01/05 04:54:52;;;;;;;0.00;0.00;;;3.40;99.90;;;;;;6215864;23;20098;-69
2022/01/05 04:57:17;;;;;;;0.00;0.00;;;3.40;99.90;;;;;;6215069;23;20072;-68
2022/01/05 04:59:43;;;;;;;0.00;0.00;;;3.30;99.90;;;;;;6212940;23;19997;-69
2022/01/05 05:02:12;;;;;;;0.00;0.00;;;3.30;99.90;;;;;;6215618;23;20011;-69
2022/01/05 05:04:38;;;;;;;0.00;0.00;;;3.30;99.90;;;;;;6214660;23;20085;-69
2022/01/05 05:07:05;;;;;;;0.00;0.00;;;3.30;99.90;;;;;;6211579;23;20007;-70
2022/01/05 05:09:30;;;;;;;0.00;0.00;;;3.40;99.90;;;;;;6215342;23;20011;-69
2022/01/05 05:11:56;;;;;;;0.00;0.00;;;3.40;99.90;;;;;;6214775;23;20004;-69
2022/01/05 05:14:22;;;;;;;0.00;0.00;;;3.50;99.90;;;;;;6211865;23;19996;-69
2022/01/05 05:16:47;;;;;;;0.00;0.00;;;3.50;99.90;;;;;;6213056;23;20410;-68
2022/01/05 05:19:13;;;;;;;0.00;0.00;;;3.50;99.90;;;;;;6212147;23;20009;-69
2022/01/05 05:21:39;;;;;;;0.00;0.00;;;3.40;99.90;;;;;;6213894;23;20340;-70
2022/01/05 05:24:05;;;;;;;0.00;0.00;;;3.40;99.90;;;;;;6214205;23;20000;-69
2022/01/05 05:26:30;;;;;;;0.00;0.00;;;3.50;99.90;;;;;;6212757;23;20011;-69
2022/01/05 05:28:56;;;;;;;0.10;0.10;;;3.40;99.90;;;;;;6214069;23;20032;-69
2022/01/05 05:31:22;;;;;;;0.00;0.00;;;3.30;99.90;;;;;;6214404;23;20007;-68
2022/01/05 05:33:47;;;;;;;0.00;0.00;;;3.20;99.90;;;;;;6213738;23;20016;-68
2022/01/05 05:36:13;;;;;;;0.00;0.00;;;3.20;99.90;;;;;;6214264;23;20005;-69
2022/01/05 05:38:39;;;;;;;0.00;0.00;;;3.20;99.90;;;;;;6214261;23;20004;-68
2022/01/05 05:41:04;;;;;;;0.00;0.00;;;3.10;99.90;;;;;;6210860;23;20004;-70
2022/01/05 05:43:30;;;;;;;0.00;0.00;;;3.10;99.90;;;;;;6214463;23;20001;-70
2022/01/05 05:45:56;;;;;;;;;;;3.10;99.90;;;;;;6212995;23;20328;-69
2022/01/05 05:48:22;;;;;;;0.00;0.00;;;3.20;99.90;;;;;;6214185;23;20269;-72
2022/01/05 05:50:47;;;;;;;0.00;0.00;;;3.20;99.90;;;;;;6215054;23;20063;-69
2022/01/05 05:53:13;;;;;;;0.00;0.00;;;3.10;99.90;;;;;;6212440;23;19997;-69
2022/01/05 05:55:39;;;;;;;0.00;0.00;;;3.10;99.90;;;;;;6213499;23;20023;-68
2022/01/05 05:58:05;;;;;;;;;;;3.20;99.90;;;;;;6214436;23;20286;-69
2022/01/05 06:00:31;;;;;;;0.00;0.00;;;3.30;99.90;;;;;;6211931;23;19908;-69
2022/01/05 06:02:58;;;;;;;0.00;0.00;;;3.30;99.90;;;;;;6211742;23;20032;-70
2022/01/05 06:05:24;;;;;;;0.00;0.00;;;3.30;99.90;;;;;;6214198;23;20004;-67
2022/01/05 06:07:49;;;;;;;0.00;0.00;;;3.40;99.90;;;;;;6212747;23;20000;-70
2022/01/05 06:10:15;;;;;;;0.00;0.00;;;3.30;99.90;;;;;;6217205;23;20055;-69
2022/01/05 06:12:41;;;;;;;0.00;0.00;;;3.20;99.90;;;;;;6214101;23;20005;-69
2022/01/05 06:15:07;;;;;;;0.00;0.00;;;3.20;99.90;;;;;;6213198;23;20536;-68
2022/01/05 06:17:32;;;;;;;;;;;3.10;99.90;;;;;;6215206;23;20004;-70
2022/01/05 06:19:58;;;;;;;0.00;0.00;;;3.20;99.90;;;;;;6213601;23;19911;-68
2022/01/05 06:22:24;;;;;;;0.00;0.00;;;3.20;99.90;;;;;;6212343;23;20121;-69
2022/01/05 06:24:50;;;;;;;0.00;0.00;;;3.20;99.90;;;;;;6211748;23;20001;-68
2022/01/05 06:27:16;;;;;;;0.00;0.00;;;3.10;99.90;;;;;;6211971;23;19996;-70
2022/01/05 06:29:41;;;;;;;0.00;0.00;;;3.10;99.90;;;;;;6213555;23;20007;-70
2022/01/05 06:32:08;;;;;;;0.00;0.00;;;3.00;99.90;;;;;;6212802;23;20457;-68
2022/01/05 06:34:33;;;;;;;0.00;0.00;;;3.00;99.90;;;;;;6208269;23;20013;-70
2022/01/05 06:37:00;;;;;;;0.00;0.00;;;3.00;99.90;;;;;;6210920;23;20337;-69
2022/01/05 06:39:26;;;;;;;0.00;0.00;;;3.00;99.90;;;;;;6212032;23;20075;-69
2022/01/05 06:41:52;;;;;;;0.00;0.00;;;3.00;99.90;;;;;;6213893;23;20083;-68
2022/01/05 06:44:18;;;;;;;0.00;0.00;;;3.00;99.90;;;;;;6213508;23;20417;-69
2022/01/05 06:46:43;;;;;;;0.00;0.00;;;2.90;99.90;;;;;;6213246;23;20062;-68
2022/01/05 06:49:09;;;;;;;0.00;0.00;;;2.90;99.90;;;;;;6213809;23;20028;-69
2022/01/05 06:51:35;;;;;;;0.00;0.00;;;2.90;99.90;;;;;;6213365;23;20075;-70
2022/01/05 06:54:00;;;;;;;0.00;0.00;;;3.00;99.90;;;;;;6211125;23;20047;-68
2022/01/05 06:56:26;;;;;;;0.00;0.00;;;3.00;99.90;;;;;;6212447;23;20333;-69
2022/01/05 06:58:52;;;;;;;0.00;0.00;;;3.10;99.90;;;;;;6214717;23;20413;-69
2022/01/05 07:01:18;;;;;;;0.00;0.00;;;3.10;99.90;;;;;;6214391;23;20391;-69
2022/01/05 07:03:43;;;;;;;0.00;0.00;;;3.10;99.90;;;;;;6216601;23;20007;-69
2022/01/05 07:06:09;;;;;;;0.00;0.00;;;3.30;99.90;;;;;;6215259;23;19997;-69
2022/01/05 07:08:34;;;;;;;0.00;0.00;;;3.20;99.90;;;;;;6217028;23;20321;-69
2022/01/05 07:11:00;;;;;;;0.00;0.00;;;3.20;99.90;;;;;;6217237;23;20297;-69
2022/01/05 07:13:26;;;;;;;0.00;0.00;;;3.20;99.90;;;;;;6216884;23;20001;-70
2022/01/05 07:15:51;;;;;;;0.00;0.00;;;3.20;99.90;;;;;;6215877;23;20357;-70
2022/01/05 07:18:18;;;;;;;0.00;0.00;;;3.30;99.90;;;;;;6216875;23;20320;-69
2022/01/05 07:20:45;;;;;;;0.00;0.00;;;3.20;99.90;;;;;;6214629;23;20004;-70
2022/01/05 07:23:11;;;;;;;0.00;0.00;;;3.20;99.90;;;;;;6216066;23;20011;-70
2022/01/05 07:25:36;;;;;;;;;;;3.10;99.90;;;;;;6216134;23;20001;-70
2022/01/05 07:28:02;;;;;;;0.00;0.00;;;3.10;99.90;;;;;;6214694;23;20018;-70
2022/01/05 07:30:28;;;;;;;0.00;0.00;;;3.10;99.90;;;;;;6215034;23;20001;-69
2022/01/05 07:32:54;;;;;;;0.00;0.00;;;3.10;99.90;;;;;;6210586;23;20024;-68
2022/01/05 07:35:19;;;;;;;0.00;0.00;;;3.20;99.90;;;;;;6216720;23;20028;-70
2022/01/05 07:37:45;;;;;;;0.00;0.00;;;3.20;99.90;;;;;;6223894;23;20026;-69
2022/01/05 07:40:11;;;;;;;0.00;0.00;;;3.20;99.90;;;;;;6219757;23;20342;-69
2022/01/05 07:42:38;;;;;;;0.00;0.00;;;3.30;99.90;;;;;;6218031;23;20114;-69
2022/01/05 07:45:06;;;;;;;0.00;0.00;;;3.40;99.90;;;;;;6217511;23;20006;-69
2022/01/05 07:47:32;;;;;;;0.00;0.00;;;3.40;99.90;;;;;;6214326;23;20017;-67
2022/01/05 07:49:58;;;;;;;;;;;3.40;99.90;;;;;;6219525;23;20076;-68
2022/01/05 07:52:23;;;;;;;0.00;0.00;;;3.40;99.90;;;;;;6215258;23;19940;-70
2022/01/05 07:54:52;;;;;;;0.00;0.00;;;3.40;99.90;;;;;;6215304;23;20425;-68
2022/01/05 07:57:18;;;;;;;0.00;0.00;;;3.40;99.90;;;;;;6217581;23;20008;-67
2022/01/05 07:59:44;;;;;;;0.00;0.00;;;3.50;99.90;;;;;;6217991;23;20060;-68
2022/01/05 08:02:09;;;;;;;0.00;0.00;;;3.60;99.90;;;;;;6220072;23;20005;-68
2022/01/05 08:04:35;;;;;;;0.00;0.00;;;3.60;99.90;;;;;;6217872;23;20012;-70
2022/01/05 08:07:01;;;;;;;0.00;0.00;;;3.60;99.90;;;;;;6221387;23;20000;-70
2022/01/05 08:09:29;;;;;;;0.00;0.00;;;3.60;99.90;;;;;;6224038;23;20014;-71
2022/01/05 08:11:58;;;;;;;0.00;0.00;;;3.60;99.90;;;;;;6223745;23;20119;-70
2022/01/05 08:14:24;;;;;;;0.00;0.00;;;3.50;99.90;;;;;;6224187;23;19996;-71
2022/01/05 08:16:50;;;;;;;0.00;0.00;;;3.50;99.90;;;;;;6225520;23;19996;-71
2022/01/05 08:19:16;;;;;;;;;;;3.40;99.90;;;;;;6225493;23;20162;-71
2022/01/05 08:21:42;;;;;;;0.00;0.00;;;3.50;99.90;;;;;;6227406;23;19911;-71
2022/01/05 08:24:08;;;;;;;0.00;0.00;;;3.60;99.90;;;;;;6226320;23;20007;-71
2022/01/05 08:26:34;;;;;;;0.00;0.00;;;3.70;99.90;;;;;;6225072;23;20004;-71
2022/01/05 08:29:00;;;;;;;0.00;0.00;;;3.70;99.90;;;;;;6226121;23;20001;-70
2022/01/05 08:31:26;;;;;;;0.00;0.00;;;3.60;99.90;;;;;;6227077;23;20005;-70
2022/01/05 08:33:56;;;;;;;0.00;0.00;;;3.60;99.90;;;;;;6222516;23;20008;-71
2022/01/05 08:36:22;;;;;;;0.00;0.00;;;3.60;99.90;;;;;;6224243;23;20379;-68
2022/01/05 08:38:47;;;;;;;0.00;0.00;;;3.50;99.90;;;;;;6222549;23;20007;-71
2022/01/05 08:41:13;;;;;;;0.00;0.00;;;3.50;99.90;;;;;;6221446;23;20008;-70
2022/01/05 08:43:39;;;;;;;0.00;0.00;;;3.50;99.90;;;;;;6225751;23;20008;-69
2022/01/05 08:46:05;;;;;;;0.00;0.00;;;3.60;99.90;;;;;;6213759;23;20020;-70
2022/01/05 08:48:31;;;;;;;;;;;3.60;99.90;;;;;;6219146;23;19996;-69
2022/01/05 08:50:57;;;;;;;0.00;0.00;;;3.50;99.90;;;;;;6215320;23;19907;-71
2022/01/05 08:53:23;;;;;;;0.00;0.00;;;3.60;99.90;;;;;;6213657;23;20016;-71
2022/01/05 08:55:50;;;;;;;;;;;3.60;99.90;;;;;;6218894;23;20008;-69
2022/01/05 08:58:18;;;;;;;0.00;0.00;;;3.60;99.90;;;;;;6219411;23;19899;-69
2022/01/05 09:00:44;;;;;;;0.00;0.00;;;3.80;99.90;;;;;;6217214;23;20381;-69
2022/01/05 09:03:13;;;;;;;0.00;0.00;;;3.80;99.90;;;;;;6221336;23;20148;-69
2022/01/05 09:05:39;;;;;;;0.00;0.00;;;3.80;99.90;;;;;;6219550;23;20020;-69
2022/01/05 09:08:05;;;;;;;;;;;3.80;99.90;;;;;;6222497;23;19996;-70
2022/01/05 09:10:31;;;;;;;0.00;0.00;;;3.80;99.90;;;;;;6220958;23;19954;-70
2022/01/05 09:12:57;;;;;;;0.00;0.00;;;3.90;99.90;;;;;;6220220;23;20056;-69
2022/01/05 09:15:24;;;;;;;0.00;0.00;;;4.00;99.90;;;;;;6220663;23;20405;-69
2022/01/05 09:17:50;;;;;;;0.00;0.00;;;4.10;99.90;;;;;;6219868;23;20008;-69
2022/01/05 09:20:15;;;;;;;0.00;0.00;;;4.10;99.90;;;;;;6219730;23;20009;-70
2022/01/05 09:22:41;;;;;;;0.00;0.00;;;4.00;99.90;;;;;;6220298;23;20000;-68
2022/01/05 09:25:10;;;;;;;0.00;0.00;;;4.00;99.90;;;;;;6221805;23;20000;-69
2022/01/05 09:27:36;;;;;;;0.00;0.00;;;4.00;99.90;;;;;;6219466;23;20007;-70
2022/01/05 09:30:04;;;;;;;0.00;0.00;;;4.20;99.90;;;;;;6218392;23;20009;-70
2022/01/05 09:32:30;;;;;;;0.00;0.00;;;4.20;99.90;;;;;;6217685;23;20005;-70
2022/01/05 09:34:56;;;;;;;0.00;0.00;;;4.10;99.90;;;;;;6221657;23;20052;-69
2022/01/05 09:37:33;;;;;;;0.00;0.00;;;4.20;99.90;;;;;;6220340;23;20031;-69
2022/01/05 09:42:43;;;;;;;0.00;0.00;;;4.30;99.90;;;;;;6221238;23;20017;-70
2022/01/05 09:45:14;;;;;;;0.00;0.00;;;4.30;99.90;;;;;;6221040;23;20028;-69
2022/01/05 09:47:55;;;;;;;0.00;0.00;;;4.40;99.90;;;;;;6218735;23;20488;-68
2022/01/05 09:50:23;;;;;;;0.00;0.00;;;4.50;99.90;;;;;;6217321;23;20432;-69
2022/01/05 09:52:49;;;;;;;0.00;0.00;;;4.50;99.90;;;;;;6218557;23;20060;-70
2022/01/05 09:55:16;;;;;;;0.00;0.00;;;4.50;99.90;;;;;;6221260;23;20000;-69
2022/01/05 09:57:45;;;;;;;0.00;0.00;;;4.70;99.90;;;;;;6221075;23;20004;-69
2022/01/05 10:00:13;;;;;;;0.00;0.00;;;4.80;99.90;;;;;;6220472;23;20011;-70
2022/01/05 10:02:40;;;;;;;0.00;0.00;;;4.80;99.90;;;;;;6225990;23;20016;-69
2022/01/05 10:05:10;;;;;;;0.00;0.00;;;4.80;99.90;;;;;;6221531;23;20000;-69
2022/01/05 10:07:37;;;;;;;0.00;0.00;;;4.80;99.90;;;;;;6222159;23;20000;-69
2022/01/05 10:10:04;;;;;;;0.00;0.00;;;4.80;99.90;;;;;;6221821;23;20059;-69
2022/01/05 10:12:29;;;;;;;0.00;0.00;;;4.80;99.90;;;;;;6221774;23;20076;-70
2022/01/05 10:14:55;;;;;;;0.00;0.00;;;4.90;99.90;;;;;;6218760;23;19997;-69
2022/01/05 10:17:29;;;;;;;0.00;0.00;;;5.00;99.90;;;;;;6216995;23;20004;-70
2022/01/05 10:20:07;;;;;;;0.00;0.00;;;5.00;99.90;;;;;;6217938;23;20012;-69
2022/01/05 10:22:45;;;;;;;0.00;0.00;;;5.00;99.90;;;;;;6219267;23;20043;-70
2022/01/05 10:25:21;;;;;;;0.00;0.00;;;5.10;99.90;;;;;;6217250;23;20031;-69
2022/01/05 10:28:00;;;;;;;;;;;5.20;99.90;;;;;;6215838;23;20031;-70
2022/01/05 10:30:40;;;;;;;0.00;0.00;;;5.20;99.90;;;;;;6218010;23;19903;-70
2022/01/05 10:33:07;;;;;;;0.00;0.00;;;5.10;99.90;;;;;;6216257;23;20008;-70
2022/01/05 10:35:34;;;;;;;0.00;0.00;;;5.20;99.90;;;;;;6218843;23;20011;-70
2022/01/05 10:38:03;;;;;;;0.00;0.00;;;5.30;99.90;;;;;;6219541;23;20005;-69
2022/01/05 10:40:32;;;;;;;0.00;0.00;;;5.40;99.90;;;;;;6217277;23;20083;-69
2022/01/05 10:42:58;;;;;;;0.00;0.00;;;5.50;99.90;;;;;;6219552;23;20067;-70
2022/01/05 10:45:40;;;;;;;0.00;0.00;;;5.50;99.90;;;;;;6220534;23;20369;-69
2022/01/05 10:48:17;;;;;;;0.00;0.00;;;5.60;99.90;;;;;;6221115;23;20005;-69
2022/01/05 10:50:44;;;;;;;0.00;0.00;;;5.60;99.90;;;;;;6218065;23;19997;-69
2022/01/05 10:53:16;;;;;;;0.00;0.00;;;5.70;99.90;;;;;;6219189;23;20417;-69
2022/01/05 10:55:44;;;;;;;0.00;0.00;;;5.70;99.90;;;;;;6221001;23;20007;-69
2022/01/05 10:58:12;;;;;;;0.00;0.00;;;5.70;99.90;;;;;;6221314;23;20520;-72
2022/01/05 11:00:50;;;;;;;0.00;0.00;;;5.70;99.90;;;;;;6225179;23;20361;-71
2022/01/05 11:03:23;;;;;;;0.00;0.00;;;5.70;99.90;;;;;;6220277;23;20100;-70
2022/01/05 11:06:10;;;;;;;0.00;0.00;;;5.70;99.90;;;;;;6220473;23;20008;-69
2022/01/05 11:09:05;;;;;;;0.00;0.00;;;5.70;99.90;;;;;;6221812;23;20084;-69
2022/01/05 11:11:43;;;;;;;0.00;0.00;;;5.80;99.90;;;;;;6224141;23;20001;-68
2022/01/05 11:14:09;;;;;;;0.00;0.00;;;5.90;99.90;;;;;;6219982;23;19996;-68
2022/01/05 11:16:37;;;;;;;0.00;0.00;;;5.90;99.90;;;;;;6222706;23;20054;-70
2022/01/05 11:19:29;;;;;;;0.00;0.00;;;5.90;99.90;;;;;;6220714;23;19997;-69
2022/01/05 11:22:03;;;;;;;0.00;0.00;;;6.00;99.90;;;;;;6220350;23;20032;-69
2022/01/05 11:24:47;;;;;;;0.00;0.00;;;6.00;99.90;;;;;;6222056;23;20008;-69
2022/01/05 11:27:22;;;;;;;0.00;0.00;;;6.10;99.90;;;;;;6221663;23;20003;-69
2022/01/05 11:29:48;;;;;;;0.00;0.00;;;6.10;99.90;;;;;;6221474;23;20028;-69
2022/01/05 11:32:20;;;;;;;0.00;0.00;;;6.20;99.90;;;;;;6224007;23;20001;-70
2022/01/05 11:34:47;;;;;;;0.00;0.00;;;6.30;99.90;;;;;;6222630;23;20017;-68
2022/01/05 11:37:13;;;;;;;0.00;0.00;;;6.30;99.90;;;;;;6223305;23;20052;-69
2022/01/05 11:39:45;;;;;;;0.00;0.00;;;6.30;99.90;;;;;;6220454;23;20014;-69
2022/01/05 11:42:15;;;;;;;0.00;0.00;;;6.30;99.90;;;;;;6219097;23;20027;-70
2022/01/05 11:44:49;;;;;;;0.00;0.00;;;6.30;99.90;;;;;;6223493;23;20007;-69
2022/01/05 11:47:23;;;;;;;0.00;0.00;;;6.40;99.90;;;;;;6222540;23;20001;-70
2022/01/05 11:49:51;;;;;;;0.00;0.00;;;6.40;99.90;;;;;;6225916;23;20084;-70
2022/01/05 11:52:16;;;;;;;0.00;0.00;;;6.50;99.90;;;;;;6225500;23;19997;-70
2022/01/05 11:55:02;;;;;;;0.00;0.00;;;6.50;99.90;;;;;;6221107;23;20127;-68
2022/01/05 11:57:28;;;;;;;0.00;0.00;;;6.50;99.90;;;;;;6222795;23;19997;-70
2022/01/05 12:00:18;;;;;;;0.00;0.00;;;6.50;99.90;;;;;;6222560;23;20015;-68
2022/01/05 12:02:43;;;;;;;0.00;0.00;;;6.40;99.90;;;;;;6222227;23;20282;-70
2022/01/05 12:05:09;;;;;;;0.00;0.00;;;6.40;99.90;;;;;;6222025;23;20023;-68
2022/01/05 12:07:45;;;;;;;0.00;0.00;;;6.40;99.90;;;;;;6222485;23;19997;-70
2022/01/05 12:10:22;;;;;;;0.00;0.00;;;6.50;99.90;;;;;;6222028;23;20001;-70
2022/01/05 12:12:55;;;;;;;;;;;6.50;99.90;;;;;;6223510;23;20335;-69
2022/01/05 12:15:41;;;;;;;0.00;0.00;;;6.50;99.90;;;;;;6222721;23;19914;-70
2022/01/05 12:18:08;;;;;;;0.00;0.00;;;6.50;99.90;;;;;;6219701;23;20000;-71
2022/01/05 12:20:35;;;;;;;0.00;0.00;;;6.50;99.90;;;;;;6221462;23;20491;-70
2022/01/05 12:23:32;;;;;;;0.00;0.00;;;6.60;99.90;;;;;;6219993;23;20047;-69
2022/01/05 12:26:01;;;;;;;0.00;0.00;;;6.60;99.90;;;;;;6201496;23;20004;-70
2022/01/05 12:28:29;;;;;;;0.00;0.00;;;6.60;99.90;;;;;;6219380;23;20062;-69
2022/01/05 12:30:55;;;;;;;0.00;0.00;;;6.60;99.90;;;;;;6223857;23;20000;-69
2022/01/05 12:33:20;;;;;;;0.00;0.00;;;6.60;99.90;;;;;;6218222;23;20012;-68
2022/01/05 12:35:51;;;;;;;0.00;0.00;;;6.60;99.90;;;;;;6219449;23;20420;-69
2022/01/05 12:38:47;;;;;;;0.00;0.00;;;6.60;99.90;;;;;;6223916;23;19997;-69
2022/01/05 12:41:23;;;;;;;0.00;0.00;;;6.60;99.90;;;;;;6224641;23;20004;-70
2022/01/05 12:43:50;;;;;;;0.00;0.00;;;6.70;99.90;;;;;;6225495;23;20009;-68
2022/01/05 12:46:36;;;;;;;0.00;0.00;;;6.70;99.90;;;;;;6222743;23;20017;-69
2022/01/05 12:49:04;;;;;;;0.00;0.00;;;6.70;99.90;;;;;;6220465;23;20008;-68
2022/01/05 12:51:44;;;;;;;0.00;0.00;;;6.70;99.90;;;;;;6218731;23;20017;-68
2022/01/05 12:54:19;;;;;;;0.00;0.00;;;6.80;99.90;;;;;;6223010;23;20070;-69
2022/01/05 12:56:50;;;;;;;0.00;0.00;;;6.80;99.90;;;;;;6222495;23;20112;-69
2022/01/05 12:59:16;;;;;;;0.00;0.00;;;6.80;99.90;;;;;;6224083;23;20004;-68
2022/01/05 13:01:44;;;;;;;0.00;0.00;;;6.80;99.90;;;;;;6222696;23;19996;-70
2022/01/05 13:04:11;;;;;;;0.00;0.00;;;6.80;99.90;;;;;;6224085;23;20432;-73
2022/01/05 13:06:39;;;;;;;0.00;0.00;;;6.90;99.90;;;;;;6223889;23;20011;-70
2022/01/05 13:09:12;;;;;;;0.00;0.00;;;6.90;99.90;;;;;;6219938;23;20013;-70
2022/01/05 13:11:45;;;;;;;0.00;0.00;;;7.00;99.90;;;;;;6220939;23;19996;-69